createdAt,value
2019-04-09T00:02:51.025Z,14.73
2019-04-09T00:05:54.472Z,14.70
2019-04-09T00:08:58.336Z,12.43
2019-04-09T00:12:02.695Z,13.67
2019-04-09T00:15:07.211Z,14.10
2019-04-09T00:18:10.208Z,13.90
2019-04-09T00:21:13.491Z,14.83
2019-04-09T00:24:16.803Z,13.37
2019-04-09T00:27:20.575Z,14.60
2019-04-09T00:30:23.615Z,15.67
2019-04-09T00:33:26.642Z,13.90
2019-04-09T00:36:30.244Z,14.57
2019-04-09T00:39:33.163Z,14.60
2019-04-09T00:42:36.083Z,16.33
2019-04-09T00:45:39.416Z,14.47
2019-04-09T00:48:42.407Z,13.50
2019-04-09T00:51:45.602Z,14.33
2019-04-09T00:54:48.522Z,14.40
2019-04-09T00:57:51.818Z,13.80
2019-04-09T01:00:59.721Z,14.80
2019-04-09T01:04:03.486Z,14.30
2019-04-09T01:07:06.575Z,15.30
2019-04-09T01:10:10.216Z,14.10
2019-04-09T01:13:14.068Z,14.17
2019-04-09T01:16:17.912Z,14.57
2019-04-09T01:19:22.122Z,14.67
2019-04-09T01:22:26.870Z,14.00
2019-04-09T01:25:39.247Z,14.63
2019-04-09T01:29:01.836Z,14.83
2019-04-09T01:32:29.520Z,14.30
2019-04-09T01:35:47.100Z,15.60
2019-04-09T01:39:09.961Z,14.83
2019-04-09T01:42:23.235Z,15.17
2019-04-09T01:45:33.283Z,14.50
2019-04-09T01:48:47.496Z,15.37
2019-04-09T01:52:25.362Z,13.50
2019-04-09T01:55:47.079Z,13.60
2019-04-09T01:59:09.611Z,15.20
2019-04-09T02:02:32.731Z,14.80
2019-04-09T02:06:04.734Z,15.07
2019-04-09T02:09:33.847Z,14.23
2019-04-09T02:12:45.168Z,15.77
2019-04-09T02:16:14.549Z,14.53
2019-04-09T02:19:41.660Z,14.60
2019-04-09T02:22:56.692Z,13.97
2019-04-09T02:26:12.748Z,15.40
2019-04-09T02:29:38.941Z,15.30
2019-04-09T02:33:00.716Z,16.93
2019-04-09T02:36:20.597Z,15.80
2019-04-09T02:39:45.350Z,15.20
2019-04-09T02:43:04.839Z,15.70
2019-04-09T02:46:31.551Z,19.30
2019-04-09T02:49:39.944Z,16.73
2019-04-09T02:53:05.228Z,16.40
2019-04-09T02:56:30.564Z,15.87
2019-04-09T02:59:53.868Z,15.50
2019-04-09T03:03:08.807Z,14.77
2019-04-09T03:06:27.891Z,16.00
2019-04-09T03:09:51.333Z,15.00
2019-04-09T03:13:13.039Z,13.93
2019-04-09T03:16:35.532Z,15.40
2019-04-09T03:19:53.783Z,12.80
2019-04-09T03:23:21.247Z,14.67
2019-04-09T03:26:40.388Z,15.17
2019-04-09T03:30:01.517Z,14.60
2019-04-09T03:33:27.422Z,15.20
2019-04-09T03:36:56.296Z,15.97
2019-04-09T03:40:09.463Z,14.80
2019-04-09T03:43:28.612Z,14.50
2019-04-09T03:46:42.655Z,15.17
2019-04-09T03:49:55.069Z,14.10
2019-04-09T03:53:20.782Z,13.80
2019-04-09T03:56:49.398Z,12.90
2019-04-09T04:00:04.160Z,13.77
2019-04-09T04:03:16.457Z,13.73
2019-04-09T04:06:32.267Z,13.07
2019-04-09T04:09:58.152Z,14.23
2019-04-09T04:13:20.332Z,13.37
2019-04-09T04:16:49.659Z,12.37
2019-04-09T04:20:11.556Z,14.37
2019-04-09T04:23:29.302Z,14.27
2019-04-09T04:26:51.522Z,13.40
2019-04-09T04:30:26.368Z,12.87
2019-04-09T04:33:56.125Z,15.97
2019-04-09T04:37:06.563Z,13.40
2019-04-09T04:40:39.070Z,12.27
2019-04-09T04:43:50.426Z,13.13
2019-04-09T04:47:05.470Z,12.73
2019-04-09T04:50:26.086Z,15.43
2019-04-09T04:53:48.890Z,13.37
2019-04-09T04:57:06.020Z,14.90
2019-04-09T05:00:18.683Z,13.20
2019-04-09T05:03:41.568Z,15.07
2019-04-09T05:07:08.008Z,13.60
2019-04-09T05:10:29.938Z,13.17
2019-04-09T05:13:45.674Z,15.73
2019-04-09T05:17:14.214Z,14.27
2019-04-09T05:20:37.502Z,15.30
2019-04-09T05:23:54.073Z,14.00
2019-04-09T05:27:04.954Z,14.70
2019-04-09T05:30:24.606Z,14.00
2019-04-09T05:33:45.435Z,14.53
2019-04-09T05:37:23.447Z,15.00
2019-04-09T05:40:45.973Z,15.37
2019-04-09T05:44:12.451Z,14.37
2019-04-09T05:47:26.189Z,14.67
2019-04-09T05:50:47.638Z,16.60
2019-04-09T05:53:57.389Z,15.47
2019-04-09T05:57:11.492Z,16.23
2019-04-09T06:00:42.895Z,16.93
2019-04-09T06:04:11.784Z,16.03
2019-04-09T06:07:33.220Z,17.37
2019-04-09T06:10:36.908Z,17.47
2019-04-09T06:13:39.937Z,17.80
2019-04-09T06:16:43.301Z,17.57
2019-04-09T06:19:46.421Z,17.17
2019-04-09T06:22:49.739Z,15.97
2019-04-09T06:25:53.684Z,18.67
2019-04-09T06:28:57.163Z,17.73
2019-04-09T06:32:05.204Z,17.10
2019-04-09T06:35:24.428Z,16.83
2019-04-09T06:38:48.101Z,16.90
2019-04-09T06:42:06.650Z,17.10
2019-04-09T06:45:32.382Z,20.70
2019-04-09T06:49:10.230Z,17.47
2019-04-09T06:52:34.826Z,17.27
2019-04-09T06:55:57.672Z,16.77
2019-04-09T06:59:25.816Z,16.50
2019-04-09T07:02:36.632Z,17.13
2019-04-09T07:06:18.065Z,18.60
2019-04-09T07:09:47.687Z,16.80
2019-04-09T07:13:01.834Z,16.13
2019-04-09T07:16:27.872Z,16.80
2019-04-09T07:19:49.451Z,15.83
2019-04-09T07:23:05.751Z,17.53
2019-04-09T07:26:45.988Z,19.07
2019-04-09T07:30:20.283Z,17.07
2019-04-09T07:33:26.507Z,17.50
2019-04-09T07:36:58.389Z,15.80
2019-04-09T07:40:35.625Z,15.63
2019-04-09T07:44:19.108Z,15.87
2019-04-09T07:47:39.875Z,16.20
2019-04-09T07:51:12.193Z,16.17
2019-04-09T07:54:43.444Z,15.67
2019-04-09T07:58:06.830Z,14.97
2019-04-09T08:01:31.533Z,15.70
2019-04-09T08:04:48.969Z,15.97
2019-04-09T08:08:21.054Z,15.27
2019-04-09T08:11:33.799Z,14.83
2019-04-09T08:15:06.010Z,14.90
2019-04-09T08:18:24.571Z,15.53
2019-04-09T08:21:44.608Z,15.13
2019-04-09T08:25:09.235Z,13.90
2019-04-09T08:28:36.343Z,16.20
2019-04-09T08:32:06.935Z,13.53
2019-04-09T08:35:19.989Z,13.43
2019-04-09T08:38:34.942Z,14.53
2019-04-09T08:41:56.597Z,13.70
2019-04-09T08:45:20.577Z,15.07
2019-04-09T08:48:30.761Z,13.63
2019-04-09T08:51:49.664Z,15.73
2019-04-09T08:54:59.363Z,15.20
2019-04-09T08:58:06.234Z,13.97
2019-04-09T09:01:52.097Z,14.37
2019-04-09T09:04:49.050Z,16.77
2019-04-09T09:08:09.127Z,14.53
2019-04-09T09:11:28.471Z,14.13
2019-04-09T09:14:51.821Z,13.60
2019-04-09T09:18:03.590Z,14.40
2019-04-09T09:21:29.268Z,14.07
2019-04-09T09:24:51.340Z,14.63
2019-04-09T09:28:16.648Z,12.87
2019-04-09T09:31:40.767Z,14.73
2019-04-09T09:35:03.647Z,14.90
2019-04-09T09:38:36.325Z,13.27
2019-04-09T09:41:48.413Z,12.33
2019-04-09T09:45:12.378Z,13.07
2019-04-09T09:48:47.899Z,13.57
2019-04-09T09:52:20.057Z,13.40
2019-04-09T09:55:56.995Z,12.60
2019-04-09T09:59:20.693Z,13.40
2019-04-09T10:02:35.771Z,12.50
2019-04-09T10:05:49.885Z,12.20
2019-04-09T10:09:16.387Z,11.90
2019-04-09T10:12:39.617Z,12.97
2019-04-09T10:15:57.100Z,12.20
2019-04-09T10:19:23.096Z,10.77
2019-04-09T10:22:44.059Z,10.53
2019-04-09T10:26:19.320Z,12.60
2019-04-09T10:29:37.927Z,11.17
2019-04-09T10:33:12.885Z,10.90
2019-04-09T10:36:37.463Z,12.83
2019-04-09T10:40:06.552Z,11.87
2019-04-09T10:43:12.930Z,11.27
2019-04-09T10:46:42.575Z,11.57
2019-04-09T10:50:11.947Z,11.40
2019-04-09T10:53:35.757Z,10.97
2019-04-09T10:56:53.226Z,12.50
2019-04-09T11:00:16.388Z,11.80
2019-04-09T11:03:50.645Z,12.40
2019-04-09T11:07:17.189Z,10.60
2019-04-09T11:10:49.365Z,14.00
2019-04-09T11:14:09.600Z,11.80
2019-04-09T11:17:40.851Z,13.23
2019-04-09T11:21:12.259Z,13.00
2019-04-09T11:24:38.349Z,11.03
2019-04-09T11:28:05.795Z,13.50
2019-04-09T11:31:45.500Z,14.20
2019-04-09T11:34:52.031Z,11.67
2019-04-09T11:38:15.269Z,13.80
2019-04-09T11:41:23.523Z,12.93
2019-04-09T11:44:49.223Z,12.93
2019-04-09T11:48:11.827Z,11.20
2019-04-09T11:51:33.951Z,11.73
2019-04-09T11:54:56.613Z,12.17
2019-04-09T11:58:30.638Z,10.37
2019-04-09T12:02:00.050Z,11.53
2019-04-09T12:05:04.632Z,11.97
2019-04-09T12:08:37.021Z,11.60
2019-04-09T12:11:58.270Z,11.47
2019-04-09T12:15:24.616Z,10.20
2019-04-09T12:18:37.872Z,10.83
2019-04-09T12:22:01.731Z,10.80
2019-04-09T12:25:15.710Z,11.37
2019-04-09T12:28:41.862Z,12.63
2019-04-09T12:32:14.785Z,11.37
2019-04-09T12:35:36.223Z,12.47
2019-04-09T12:39:07.670Z,10.70
2019-04-09T12:42:20.431Z,10.43
2019-04-09T12:45:31.367Z,12.20
2019-04-09T12:48:48.619Z,11.33
2019-04-09T12:52:11.412Z,10.23
2019-04-09T12:55:30.578Z,10.37
2019-04-09T12:58:49.054Z,11.00
2019-04-09T13:02:27.998Z,9.80
2019-04-09T13:05:48.762Z,10.67
2019-04-09T13:09:21.098Z,10.40
2019-04-09T13:12:44.426Z,11.07
2019-04-09T13:15:59.495Z,10.30
2019-04-09T13:19:27.153Z,11.07
2019-04-09T13:22:54.294Z,11.10
2019-04-09T13:26:16.119Z,10.77
2019-04-09T13:29:45.280Z,10.40
2019-04-09T13:33:10.923Z,10.37
2019-04-09T13:36:39.512Z,11.57
2019-04-09T13:40:07.875Z,9.60
2019-04-09T13:43:31.333Z,9.97
2019-04-09T13:46:58.271Z,10.27
2019-04-09T13:50:30.822Z,10.60
2019-04-09T13:53:35.454Z,9.50
2019-04-09T13:56:39.032Z,9.30
2019-04-09T13:59:42.602Z,10.40
2019-04-09T14:03:17.929Z,10.73
2019-04-09T14:06:06.620Z,10.23
2019-04-09T14:09:10.021Z,11.30
2019-04-09T14:12:13.060Z,8.80
2019-04-09T14:15:16.518Z,10.90
2019-04-09T14:18:19.999Z,8.73
2019-04-09T14:21:23.050Z,8.90
2019-04-09T14:24:26.000Z,10.77
2019-04-09T14:27:34.938Z,9.97
2019-04-09T14:34:03.130Z,10.73
2019-04-09T14:37:06.235Z,10.13
2019-04-09T14:40:09.928Z,10.47
2019-04-09T14:43:13.365Z,10.47
2019-04-09T14:46:17.608Z,10.70
2019-04-09T14:49:21.702Z,10.10
2019-04-09T14:52:25.429Z,9.10
2019-04-09T14:55:31.139Z,10.03
2019-04-09T14:58:33.650Z,10.57
2019-04-09T15:01:36.921Z,10.30
2019-04-09T15:04:39.920Z,10.67
2019-04-09T15:07:43.921Z,12.50
2019-04-09T15:10:47.042Z,10.17
2019-04-09T15:13:59.487Z,11.33
2019-04-09T15:17:08.476Z,10.17
2019-04-09T15:20:13.087Z,10.40
2019-04-09T15:23:16.285Z,11.10
2019-04-09T15:26:19.643Z,11.80
2019-04-09T15:29:23.154Z,11.90
2019-04-09T15:32:28.086Z,10.90
2019-04-09T15:35:32.671Z,10.80
2019-04-09T15:38:36.343Z,9.77
2019-04-09T15:41:39.381Z,11.37
2019-04-09T15:44:42.724Z,11.07
2019-04-09T15:47:45.703Z,10.83
2019-04-09T15:50:48.688Z,12.47
2019-04-09T15:53:52.158Z,10.43
2019-04-09T15:56:55.220Z,10.77
2019-04-09T15:59:59.459Z,11.63
2019-04-09T16:03:13.320Z,11.10
2019-04-09T16:06:08.038Z,11.23
2019-04-09T16:09:19.370Z,11.40
2019-04-09T16:12:22.841Z,10.90
2019-04-09T16:15:26.672Z,11.20
2019-04-09T16:18:30.051Z,11.27
2019-04-09T16:21:33.247Z,11.50
2019-04-09T16:24:36.479Z,11.97
2019-04-09T16:27:40.179Z,10.77
2019-04-09T16:30:44.086Z,12.30
2019-04-09T16:33:59.093Z,11.63
2019-04-09T16:37:04.009Z,11.53
2019-04-09T16:39:58.564Z,12.50
2019-04-09T16:43:04.714Z,14.30
2019-04-09T16:46:08.277Z,13.27
2019-04-09T16:49:12.378Z,10.53
2019-04-09T16:52:15.837Z,11.00
2019-04-09T16:55:19.911Z,12.37
2019-04-09T16:58:24.866Z,11.83
2019-04-09T17:01:27.901Z,10.87
2019-04-09T17:04:31.778Z,11.40
2019-04-09T17:07:35.654Z,11.57
2019-04-09T17:10:39.564Z,11.30
2019-04-09T17:13:42.710Z,9.50
2019-04-09T17:16:46.754Z,10.40
2019-04-09T17:19:52.075Z,12.50
2019-04-09T17:22:55.515Z,11.83
2019-04-09T17:25:59.932Z,11.53
2019-04-09T17:29:03.035Z,10.93
2019-04-09T17:32:05.978Z,12.30
2019-04-09T17:35:08.959Z,10.77
2019-04-09T17:38:12.784Z,11.73
2019-04-09T17:41:16.601Z,11.70
2019-04-09T17:44:19.647Z,11.00
2019-04-09T17:47:22.694Z,11.17
2019-04-09T17:50:26.225Z,10.30
2019-04-09T17:53:30.806Z,9.90
2019-04-09T17:56:34.255Z,9.73
2019-04-09T17:59:37.588Z,9.83
2019-04-09T18:02:40.976Z,10.57
2019-04-09T18:05:43.983Z,11.30
2019-04-09T18:08:47.263Z,10.13
2019-04-09T18:11:51.421Z,9.50
2019-04-09T18:14:54.332Z,10.53
2019-04-09T18:17:57.915Z,10.20
2019-04-09T18:21:02.511Z,10.33
2019-04-09T18:24:06.812Z,11.70
2019-04-09T18:27:10.767Z,9.77
2019-04-09T18:30:16.030Z,9.33
2019-04-09T18:33:21.053Z,10.50
2019-04-09T18:36:24.380Z,10.60
2019-04-09T18:39:28.075Z,10.20
2019-04-09T18:42:31.285Z,10.43
2019-04-09T18:45:35.310Z,10.17
2019-04-09T18:48:44.234Z,10.70
2019-04-09T18:51:44.795Z,10.43
2019-04-09T18:54:48.238Z,9.10
2019-04-09T18:57:52.382Z,11.70
2019-04-09T19:00:55.409Z,10.70
2019-04-09T19:04:06.897Z,10.50
2019-04-09T19:07:03.990Z,9.47
2019-04-09T19:10:08.437Z,10.60
2019-04-09T19:13:12.918Z,10.50
2019-04-09T19:16:16.214Z,9.30
2019-04-09T19:19:20.505Z,10.13
2019-04-09T19:22:23.505Z,10.27
2019-04-09T19:25:28.174Z,9.70
2019-04-09T19:28:33.024Z,9.30
2019-04-09T19:31:36.290Z,9.50
2019-04-09T19:34:39.421Z,8.90
2019-04-09T19:37:42.795Z,9.53
2019-04-09T19:40:46.696Z,8.43
2019-04-09T19:43:50.021Z,8.90
2019-04-09T19:46:53.217Z,8.97
2019-04-09T19:49:56.584Z,8.50
2019-04-09T19:52:59.939Z,9.07
2019-04-09T19:56:03.055Z,9.20
2019-04-09T19:59:07.102Z,8.80
2019-04-09T20:02:10.390Z,8.70
2019-04-09T20:05:25.058Z,9.97
2019-04-09T20:08:18.832Z,8.27
2019-04-09T20:11:22.235Z,7.77
2019-04-09T20:14:26.346Z,8.83
2019-04-09T20:17:29.536Z,7.50
2019-04-09T20:20:32.823Z,8.13
2019-04-09T20:23:35.780Z,8.40
2019-04-09T20:26:40.130Z,8.70
2019-04-09T20:29:43.506Z,7.57
2019-04-09T20:32:46.879Z,7.40
2019-04-09T20:35:52.453Z,7.90
2019-04-09T20:38:55.449Z,7.47
2019-04-09T20:41:58.461Z,7.27
2019-04-09T20:45:02.554Z,8.13
2019-04-09T20:48:06.785Z,8.53
2019-04-09T20:51:10.484Z,8.00
2019-04-09T20:54:19.499Z,8.87
2019-04-09T20:57:22.373Z,8.00
2019-04-09T21:00:53.506Z,7.80
2019-04-09T21:04:05.970Z,8.67
2019-04-09T21:07:09.497Z,7.90
2019-04-09T21:10:12.895Z,8.50
2019-04-09T21:13:16.729Z,7.70
2019-04-09T21:16:20.440Z,8.03
2019-04-09T21:19:23.545Z,7.47
2019-04-09T21:22:26.481Z,6.20
2019-04-09T21:25:29.745Z,8.60
2019-04-09T21:28:33.234Z,6.90
2019-04-09T21:31:36.311Z,9.00
2019-04-09T21:34:39.533Z,8.30
2019-04-09T21:37:42.454Z,7.50
2019-04-09T21:40:58.206Z,8.27
2019-04-09T21:44:02.528Z,8.07
2019-04-09T21:47:07.909Z,7.63
2019-04-09T21:50:12.705Z,7.50
2019-04-09T21:53:15.884Z,7.00
2019-04-09T21:56:19.371Z,7.77
2019-04-09T21:59:22.659Z,7.27
2019-04-09T22:02:26.720Z,9.93
2019-04-09T22:05:30.142Z,8.00
2019-04-09T22:08:34.071Z,8.10
2019-04-09T22:11:38.217Z,7.37
2019-04-09T22:14:41.604Z,8.10
2019-04-09T22:17:45.833Z,9.13
2019-04-09T22:20:49.792Z,7.87
2019-04-09T22:23:55.370Z,7.70
2019-04-09T22:26:58.355Z,6.90
2019-04-09T22:30:01.704Z,7.50
2019-04-09T22:33:24.408Z,7.07
2019-04-09T22:36:35.118Z,7.20
2019-04-09T22:39:33.824Z,6.77
2019-04-09T22:42:37.979Z,7.33
2019-04-09T22:45:41.965Z,6.97
2019-04-09T22:48:45.050Z,6.90
2019-04-09T22:51:47.972Z,6.77
2019-04-09T22:54:51.902Z,7.43
2019-04-09T22:57:56.205Z,7.03
2019-04-09T23:01:18.482Z,5.93
2019-04-09T23:04:42.304Z,6.30
2019-04-09T23:08:03.622Z,6.90
2019-04-09T23:11:16.793Z,7.13
2019-04-09T23:14:20.141Z,6.37
2019-04-09T23:17:23.976Z,6.30
2019-04-09T23:20:28.175Z,7.53
2019-04-09T23:23:31.343Z,8.10
2019-04-09T23:26:35.348Z,7.70
2019-04-09T23:29:39.309Z,6.53
2019-04-09T23:32:43.675Z,6.10
2019-04-09T23:35:47.627Z,7.00
2019-04-09T23:38:51.690Z,6.33
2019-04-09T23:41:55.039Z,7.60
2019-04-09T23:44:57.994Z,6.57
2019-04-09T23:48:01.806Z,6.77
2019-04-09T23:51:06.303Z,6.80
2019-04-09T23:54:10.632Z,5.93
2019-04-09T23:57:14.071Z,7.40
